METAR Data
IDs: Format: Raw Decoded Include TAF

Data at: 0200 UTC 01 Mar 2021

KTQH 010155Z AUTO 35008KT 10SM CLR 07/00 A3004 RMK AO2